createdAt,value
2023-05-02T00:00:10.292Z,7.60
2023-05-02T00:01:10.281Z,7.58
2023-05-02T00:02:10.305Z,7.57
2023-05-02T00:03:10.316Z,7.55
2023-05-02T00:04:10.371Z,7.52
2023-05-02T00:05:10.271Z,7.52
2023-05-02T00:06:10.245Z,7.49
2023-05-02T00:07:10.230Z,7.46
2023-05-02T00:08:10.199Z,7.43
2023-05-02T00:09:10.199Z,7.42
2023-05-02T00:10:10.256Z,7.39
2023-05-02T00:11:10.178Z,7.37
2023-05-02T00:12:10.213Z,7.34
2023-05-02T00:13:10.160Z,7.34
2023-05-02T00:14:10.108Z,7.31
2023-05-02T00:15:10.383Z,7.30
2023-05-02T00:16:10.114Z,7.30
2023-05-02T00:17:10.124Z,7.30
2023-05-02T00:18:10.306Z,7.27
2023-05-02T00:19:10.131Z,7.24
2023-05-02T00:20:10.058Z,7.23
2023-05-02T00:21:10.086Z,7.21
2023-05-02T00:22:10.036Z,7.17
2023-05-02T00:23:10.062Z,7.15
2023-05-02T00:24:10.042Z,7.12
2023-05-02T00:25:10.050Z,7.10
2023-05-02T00:26:09.978Z,7.07
2023-05-02T00:27:10.007Z,7.09
2023-05-02T00:28:09.980Z,7.09
2023-05-02T00:29:09.959Z,7.09
2023-05-02T00:30:09.948Z,7.07
2023-05-02T00:31:10.027Z,7.05
2023-05-02T00:32:09.913Z,7.02
2023-05-02T00:33:09.975Z,7.02
2023-05-02T00:34:09.904Z,7.02
2023-05-02T00:35:09.906Z,6.99
2023-05-02T00:36:10.158Z,6.98
2023-05-02T00:37:09.869Z,6.99
2023-05-02T00:38:09.843Z,7.02
2023-05-02T00:39:09.848Z,6.99
2023-05-02T00:40:09.837Z,7.02
2023-05-02T00:41:09.878Z,6.97
2023-05-02T00:42:09.809Z,6.97
2023-05-02T00:43:10.114Z,6.99
2023-05-02T00:44:09.771Z,7.03
2023-05-02T00:45:09.800Z,7.05
2023-05-02T00:46:09.837Z,7.05
2023-05-02T00:47:09.764Z,7.07
2023-05-02T00:48:09.748Z,7.12
2023-05-02T00:49:09.752Z,7.12
2023-05-02T00:50:09.764Z,7.15
2023-05-02T00:51:09.717Z,7.17
2023-05-02T00:52:09.684Z,7.21
2023-05-02T00:53:09.723Z,7.23
2023-05-02T00:54:09.704Z,7.23
2023-05-02T00:55:09.701Z,7.27
2023-05-02T00:56:10.207Z,7.30
2023-05-02T00:57:09.782Z,7.34
2023-05-02T00:58:09.658Z,7.35
2023-05-02T00:59:09.638Z,7.37
2023-05-02T01:00:09.604Z,7.37
2023-05-02T01:01:09.636Z,7.35
2023-05-02T01:02:09.692Z,7.32
2023-05-02T01:03:09.688Z,7.30
2023-05-02T01:04:09.669Z,7.28
2023-05-02T01:05:09.568Z,7.27
2023-05-02T01:06:09.587Z,7.23
2023-05-02T01:07:09.557Z,7.21
2023-05-02T01:08:09.493Z,7.20
2023-05-02T01:09:09.578Z,7.16
2023-05-02T01:10:09.488Z,7.13
2023-05-02T01:11:09.478Z,7.10
2023-05-02T01:12:09.462Z,7.09
2023-05-02T01:13:09.471Z,7.07
2023-05-02T01:14:09.450Z,7.05
2023-05-02T01:15:09.450Z,7.02
2023-05-02T01:16:09.471Z,6.98
2023-05-02T01:17:09.559Z,6.97
2023-05-02T01:18:09.418Z,6.95
2023-05-02T01:19:09.412Z,6.91
2023-05-02T01:20:09.375Z,6.87
2023-05-02T01:21:09.388Z,6.84
2023-05-02T01:22:09.447Z,6.80
2023-05-02T01:23:09.359Z,6.77
2023-05-02T01:24:09.329Z,6.76
2023-05-02T01:25:09.327Z,6.74
2023-05-02T01:26:09.307Z,6.71
2023-05-02T01:27:09.304Z,6.69
2023-05-02T01:28:09.270Z,6.66
2023-05-02T01:29:09.296Z,6.61
2023-05-02T01:30:09.283Z,6.59
2023-05-02T01:31:09.317Z,6.56
2023-05-02T01:32:09.335Z,6.58
2023-05-02T01:33:09.272Z,6.55
2023-05-02T01:34:09.254Z,6.54
2023-05-02T01:35:09.219Z,6.55
2023-05-02T01:36:09.178Z,6.54
2023-05-02T01:37:09.573Z,6.56
2023-05-02T01:38:09.240Z,6.55
2023-05-02T01:39:09.189Z,6.55
2023-05-02T01:40:09.208Z,6.54
2023-05-02T01:41:09.152Z,6.54
2023-05-02T01:42:09.108Z,6.52
2023-05-02T01:43:09.156Z,6.51
2023-05-02T01:44:09.104Z,6.51
2023-05-02T01:45:09.125Z,6.49
2023-05-02T01:46:09.097Z,6.46
2023-05-02T01:47:09.201Z,6.43
2023-05-02T01:48:09.127Z,6.41
2023-05-02T01:49:09.102Z,6.40
2023-05-02T01:50:09.086Z,6.38
2023-05-02T01:51:09.078Z,6.40
2023-05-02T01:52:08.995Z,6.41
2023-05-02T01:53:09.127Z,6.40
2023-05-02T01:54:09.004Z,6.40
2023-05-02T01:55:08.986Z,6.41
2023-05-02T01:56:08.957Z,6.43
2023-05-02T01:57:09.815Z,6.44
2023-05-02T01:58:08.930Z,6.48
2023-05-02T01:59:08.946Z,6.48
2023-05-02T02:00:08.947Z,6.49
2023-05-02T02:01:08.957Z,6.52
2023-05-02T02:02:08.877Z,6.54
2023-05-02T02:03:08.992Z,6.55
2023-05-02T02:04:08.892Z,6.56
2023-05-02T02:05:09.116Z,6.58
2023-05-02T02:06:08.864Z,6.62
2023-05-02T02:07:08.877Z,6.66
2023-05-02T02:08:08.821Z,6.67
2023-05-02T02:09:08.877Z,6.70
2023-05-02T02:10:08.799Z,6.70
2023-05-02T02:11:08.812Z,6.73
2023-05-02T02:12:08.788Z,6.76
2023-05-02T02:13:08.798Z,6.80
2023-05-02T02:14:08.758Z,6.84
2023-05-02T02:15:08.760Z,6.85
2023-05-02T02:16:08.758Z,6.85
2023-05-02T02:17:08.783Z,6.88
2023-05-02T02:18:08.773Z,6.89
2023-05-02T02:19:08.762Z,6.91
2023-05-02T02:20:08.703Z,6.94
2023-05-02T02:21:08.739Z,6.95
2023-05-02T02:22:08.657Z,6.98
2023-05-02T02:23:08.709Z,6.99
2023-05-02T02:24:08.622Z,7.02
2023-05-02T02:25:08.717Z,7.02
2023-05-02T02:26:08.608Z,6.99
2023-05-02T02:27:08.615Z,6.98
2023-05-02T02:28:08.589Z,6.97
2023-05-02T02:29:08.608Z,6.98
2023-05-02T02:30:08.560Z,6.97
2023-05-02T02:31:08.666Z,6.98
2023-05-02T02:32:08.662Z,6.99
2023-05-02T02:33:08.573Z,7.03
2023-05-02T02:34:08.528Z,7.06
2023-05-02T02:35:08.545Z,7.09
2023-05-02T02:36:08.523Z,7.10
2023-05-02T02:37:08.603Z,7.10
2023-05-02T02:38:08.564Z,7.12
2023-05-02T02:39:08.482Z,7.13
2023-05-02T02:40:08.452Z,7.20
2023-05-02T02:41:08.489Z,7.21
2023-05-02T02:42:08.422Z,7.23
2023-05-02T02:43:08.481Z,7.21
2023-05-02T02:44:08.399Z,7.24
2023-05-02T02:45:08.416Z,7.25
2023-05-02T02:46:08.397Z,7.28
2023-05-02T02:47:08.381Z,7.25
2023-05-02T02:48:08.396Z,7.25
2023-05-02T02:49:08.398Z,7.27
2023-05-02T02:50:08.350Z,7.28
2023-05-02T02:51:08.350Z,7.28
2023-05-02T02:52:08.334Z,7.30
2023-05-02T02:53:08.305Z,7.30
2023-05-02T02:54:23.013Z,7.31
2023-05-02T02:55:09.329Z,7.34
2023-05-02T02:56:08.285Z,7.37
2023-05-02T02:57:08.238Z,7.40
2023-05-02T02:58:08.350Z,7.40
2023-05-02T02:59:08.433Z,7.40
2023-05-02T03:00:08.270Z,7.42
2023-05-02T03:01:08.195Z,7.40
2023-05-02T03:02:08.428Z,7.40
2023-05-02T03:03:08.288Z,7.40
2023-05-02T03:04:08.252Z,7.40
2023-05-02T03:05:08.142Z,7.37
2023-05-02T03:06:08.204Z,7.37
2023-05-02T03:07:08.122Z,7.35
2023-05-02T03:08:08.146Z,7.32
2023-05-02T03:09:08.163Z,7.30
2023-05-02T03:10:08.134Z,7.27
2023-05-02T03:11:08.091Z,7.25
2023-05-02T03:12:08.086Z,7.24
2023-05-02T03:13:08.080Z,7.21
2023-05-02T03:14:08.078Z,7.21
2023-05-02T03:15:08.038Z,7.20
2023-05-02T03:16:08.120Z,7.17
2023-05-02T03:17:08.092Z,7.17
2023-05-02T03:18:08.103Z,7.15
2023-05-02T03:19:07.992Z,7.15
2023-05-02T03:20:08.070Z,7.15
2023-05-02T03:21:07.961Z,7.15
2023-05-02T03:22:07.979Z,7.12
2023-05-02T03:23:07.938Z,7.10
2023-05-02T03:24:08.052Z,7.10
2023-05-02T03:25:07.945Z,7.10
2023-05-02T03:26:07.934Z,7.09
2023-05-02T03:27:07.905Z,7.10
2023-05-02T03:28:07.912Z,7.13
2023-05-02T03:29:07.984Z,7.16
2023-05-02T03:30:07.895Z,7.20
2023-05-02T03:31:07.924Z,7.24
2023-05-02T03:32:07.961Z,7.28
2023-05-02T03:33:08.213Z,7.28
2023-05-02T03:34:07.843Z,7.34
2023-05-02T03:35:07.814Z,7.35
2023-05-02T03:36:07.803Z,7.39
2023-05-02T03:37:07.798Z,7.43
2023-05-02T03:38:07.897Z,7.46
2023-05-02T03:39:07.913Z,7.49
2023-05-02T03:40:08.081Z,7.52
2023-05-02T03:41:07.783Z,7.57
2023-05-02T03:42:07.747Z,7.58
2023-05-02T03:43:07.722Z,7.63
2023-05-02T03:44:07.814Z,7.64
2023-05-02T03:45:07.738Z,7.71
2023-05-02T03:46:07.732Z,7.75
2023-05-02T03:47:07.813Z,7.79
2023-05-02T03:48:07.768Z,7.83
2023-05-02T03:49:07.662Z,7.85
2023-05-02T03:50:07.695Z,7.87
2023-05-02T03:51:07.634Z,7.92
2023-05-02T03:52:07.634Z,7.95
2023-05-02T03:53:07.606Z,8.00
2023-05-02T03:54:07.642Z,8.04
2023-05-02T03:55:07.588Z,8.05
2023-05-02T03:56:07.592Z,8.07
2023-05-02T03:57:07.550Z,8.11
2023-05-02T03:58:07.623Z,8.15
2023-05-02T03:59:07.550Z,8.16
2023-05-02T04:00:07.903Z,8.18
2023-05-02T04:01:07.556Z,8.20
2023-05-02T04:02:07.583Z,8.23
2023-05-02T04:03:07.572Z,8.25
2023-05-02T04:04:07.578Z,8.29
2023-05-02T04:05:07.490Z,8.33
2023-05-02T04:06:07.557Z,8.34
2023-05-02T04:07:07.461Z,8.37
2023-05-02T04:08:07.458Z,8.41
2023-05-02T04:09:07.437Z,8.45
2023-05-02T04:10:07.466Z,8.48
2023-05-02T04:11:07.414Z,8.52
2023-05-02T04:12:07.472Z,8.56
2023-05-02T04:13:07.394Z,8.61
2023-05-02T04:14:07.450Z,8.65
2023-05-02T04:15:07.371Z,8.66
2023-05-02T04:16:07.380Z,8.70
2023-05-02T04:17:07.501Z,8.74
2023-05-02T04:18:07.423Z,8.77
2023-05-02T04:19:07.304Z,8.80
2023-05-02T04:20:08.100Z,8.84
2023-05-02T04:21:07.306Z,8.86
2023-05-02T04:22:07.323Z,8.91
2023-05-02T04:23:07.293Z,8.95
2023-05-02T04:24:07.301Z,8.96
2023-05-02T04:25:07.279Z,8.99
2023-05-02T04:26:07.277Z,9.01
2023-05-02T04:27:07.220Z,9.02
2023-05-02T04:28:07.232Z,9.04
2023-05-02T04:29:07.211Z,9.08
2023-05-02T04:30:07.218Z,9.11
2023-05-02T04:31:07.223Z,9.14
2023-05-02T04:32:07.203Z,9.14
2023-05-02T04:33:07.212Z,9.15
2023-05-02T04:34:07.170Z,9.17
2023-05-02T04:35:07.156Z,9.20
2023-05-02T04:36:07.165Z,9.21
2023-05-02T04:37:07.130Z,9.23
2023-05-02T04:38:07.219Z,9.26
2023-05-02T04:39:07.127Z,9.26
2023-05-02T04:40:07.114Z,9.26
2023-05-02T04:41:09.221Z,9.28
2023-05-02T04:42:07.092Z,9.29
2023-05-02T04:43:07.033Z,9.31
2023-05-02T04:44:07.066Z,9.33
2023-05-02T04:45:07.044Z,9.36
2023-05-02T04:46:07.069Z,9.39
2023-05-02T04:47:07.011Z,9.39
2023-05-02T04:48:07.045Z,9.40
2023-05-02T04:49:06.970Z,9.43
2023-05-02T04:50:06.998Z,9.43
2023-05-02T04:51:07.013Z,9.47
2023-05-02T04:52:06.972Z,9.47
2023-05-02T04:53:06.914Z,9.50
2023-05-02T04:54:07.003Z,9.51
2023-05-02T04:55:06.935Z,9.53
2023-05-02T04:56:06.908Z,9.54
2023-05-02T04:57:06.888Z,9.56
2023-05-02T04:58:06.990Z,9.58
2023-05-02T04:59:06.872Z,9.58
2023-05-02T05:00:06.874Z,9.60
2023-05-02T05:01:07.129Z,9.61
2023-05-02T05:02:07.021Z,9.61
2023-05-02T05:03:06.933Z,9.64
2023-05-02T05:04:06.933Z,9.65
2023-05-02T05:05:07.034Z,9.64
2023-05-02T05:06:06.853Z,9.65
2023-05-02T05:07:06.780Z,9.65
2023-05-02T05:08:06.874Z,9.69
2023-05-02T05:09:06.782Z,9.71
2023-05-02T05:10:06.780Z,9.72
2023-05-02T05:11:06.745Z,9.74
2023-05-02T05:12:06.794Z,9.75
2023-05-02T05:13:06.753Z,9.75
2023-05-02T05:14:06.743Z,9.79
2023-05-02T05:15:06.745Z,9.79
2023-05-02T05:16:06.722Z,9.81
2023-05-02T05:17:06.904Z,9.81
2023-05-02T05:18:06.708Z,9.86
2023-05-02T05:19:06.643Z,9.86
2023-05-02T05:20:07.698Z,9.89
2023-05-02T05:21:06.633Z,9.89
2023-05-02T05:22:06.754Z,9.90
2023-05-02T05:23:06.633Z,9.91
2023-05-02T05:24:06.610Z,9.91
2023-05-02T05:25:06.577Z,9.87
2023-05-02T05:26:06.600Z,9.86
2023-05-02T05:27:06.666Z,9.86
2023-05-02T05:28:06.577Z,9.83
2023-05-02T05:29:06.640Z,9.83
2023-05-02T05:30:06.546Z,9.83
2023-05-02T05:31:06.571Z,9.87
2023-05-02T05:32:06.815Z,9.86
2023-05-02T05:33:06.535Z,9.89
2023-05-02T05:34:06.585Z,9.90
2023-05-02T05:35:06.531Z,9.91
2023-05-02T05:36:06.532Z,9.91
2023-05-02T05:37:06.425Z,9.93
2023-05-02T05:38:06.546Z,9.90
2023-05-02T05:39:07.546Z,9.90
2023-05-02T05:40:06.409Z,9.89
2023-05-02T05:41:06.384Z,9.93
2023-05-02T05:42:06.689Z,9.94
2023-05-02T05:43:06.734Z,9.99
2023-05-02T05:44:06.353Z,10.07
2023-05-02T05:45:06.350Z,10.09
2023-05-02T05:46:06.356Z,10.17
2023-05-02T05:47:06.412Z,10.22
2023-05-02T05:48:06.571Z,10.23
2023-05-02T05:49:06.851Z,10.27
2023-05-02T05:50:06.308Z,10.30
2023-05-02T05:51:06.311Z,10.34
2023-05-02T05:52:06.444Z,10.40
2023-05-02T05:53:06.505Z,10.41
2023-05-02T05:54:06.252Z,10.42
2023-05-02T05:55:06.243Z,10.45
2023-05-02T05:56:06.566Z,10.52
2023-05-02T05:57:06.190Z,10.53
2023-05-02T05:58:06.226Z,10.59
2023-05-02T05:59:06.312Z,10.63
2023-05-02T06:00:06.303Z,10.66
2023-05-02T06:01:06.699Z,10.68
2023-05-02T06:02:06.553Z,10.73
2023-05-02T06:03:08.132Z,10.76
2023-05-02T06:04:06.198Z,10.74
2023-05-02T06:05:06.152Z,10.78
2023-05-02T06:06:06.403Z,10.79
2023-05-02T06:07:06.260Z,10.84
2023-05-02T06:08:06.092Z,10.82
2023-05-02T06:09:06.083Z,10.84
2023-05-02T06:10:06.094Z,10.82
2023-05-02T06:11:06.113Z,10.82
2023-05-02T06:12:06.069Z,10.81
2023-05-02T06:13:06.030Z,10.79
2023-05-02T06:14:06.029Z,10.79
2023-05-02T06:15:06.025Z,10.74
2023-05-02T06:16:06.467Z,10.74
2023-05-02T06:17:05.960Z,10.70
2023-05-02T06:18:06.043Z,10.70
2023-05-02T06:19:05.945Z,10.68
2023-05-02T06:20:05.950Z,10.67
2023-05-02T06:21:05.955Z,10.63
2023-05-02T06:22:05.951Z,10.64
2023-05-02T06:23:06.644Z,10.60
2023-05-02T06:24:06.466Z,10.61
2023-05-02T06:25:05.863Z,10.60
2023-05-02T06:26:05.897Z,10.61
2023-05-02T06:27:05.857Z,10.61
2023-05-02T06:28:05.881Z,10.63
2023-05-02T06:29:05.934Z,10.66
2023-05-02T06:30:06.005Z,10.67
2023-05-02T06:31:06.141Z,10.70
2023-05-02T06:32:05.960Z,10.70
2023-05-02T06:33:05.923Z,10.70
2023-05-02T06:34:05.930Z,10.66
2023-05-02T06:35:05.762Z,10.66
2023-05-02T06:36:05.799Z,10.70
2023-05-02T06:37:05.806Z,10.74
2023-05-02T06:38:05.752Z,10.78
2023-05-02T06:39:05.709Z,10.81
2023-05-02T06:40:05.852Z,10.79
2023-05-02T06:41:05.690Z,10.78
2023-05-02T06:42:05.738Z,10.79
2023-05-02T06:43:05.666Z,10.84
2023-05-02T06:44:05.772Z,10.84
2023-05-02T06:45:05.855Z,10.89
2023-05-02T06:46:05.645Z,10.96
2023-05-02T06:47:05.648Z,11.03
2023-05-02T06:48:05.672Z,11.07
2023-05-02T06:49:05.613Z,11.17
2023-05-02T06:50:05.616Z,11.24
2023-05-02T06:51:05.568Z,11.29
2023-05-02T06:52:05.603Z,11.32
2023-05-02T06:53:05.551Z,11.39
2023-05-02T06:54:05.547Z,11.43
2023-05-02T06:55:05.521Z,11.37
2023-05-02T06:56:05.582Z,11.39
2023-05-02T06:57:05.554Z,11.44
2023-05-02T06:58:05.535Z,11.51
2023-05-02T06:59:05.491Z,11.52
2023-05-02T07:00:05.523Z,11.58
2023-05-02T07:01:05.517Z,11.61
2023-05-02T07:02:05.715Z,11.62
2023-05-02T07:03:05.509Z,11.64
2023-05-02T07:04:05.560Z,11.69
2023-05-02T07:05:05.427Z,11.75
2023-05-02T07:06:05.478Z,11.72
2023-05-02T07:07:05.743Z,11.75
2023-05-02T07:08:05.486Z,11.78
2023-05-02T07:09:05.406Z,11.78
2023-05-02T07:10:05.381Z,11.62
2023-05-02T07:11:05.406Z,11.57
2023-05-02T07:12:07.097Z,11.58
2023-05-02T07:13:05.331Z,11.62
2023-05-02T07:14:05.318Z,11.64
2023-05-02T07:15:05.368Z,11.69
2023-05-02T07:16:05.327Z,11.73
2023-05-02T07:17:05.396Z,11.79
2023-05-02T07:18:05.310Z,11.85
2023-05-02T07:19:05.296Z,11.95
2023-05-02T07:20:05.601Z,11.98
2023-05-02T07:21:05.284Z,12.02
2023-05-02T07:22:05.319Z,12.07
2023-05-02T07:23:05.565Z,12.10
2023-05-02T07:24:05.524Z,12.04
2023-05-02T07:25:05.592Z,12.01
2023-05-02T07:26:06.432Z,12.01
2023-05-02T07:27:05.212Z,12.01
2023-05-02T07:28:05.141Z,12.04
2023-05-02T07:29:05.169Z,12.05
2023-05-02T07:30:05.162Z,12.07
2023-05-02T07:31:05.153Z,12.09
2023-05-02T07:32:05.170Z,12.01
2023-05-02T07:33:05.201Z,11.99
2023-05-02T07:34:05.125Z,12.02
2023-05-02T07:35:05.148Z,12.05
2023-05-02T07:36:05.056Z,12.09
2023-05-02T07:37:05.065Z,12.13
2023-05-02T07:38:05.082Z,12.16
2023-05-02T07:39:05.129Z,12.20
2023-05-02T07:40:05.237Z,12.27
2023-05-02T07:41:05.075Z,12.29
2023-05-02T07:42:05.022Z,12.32
2023-05-02T07:43:05.057Z,12.37
2023-05-02T07:44:04.985Z,12.38
2023-05-02T07:45:05.171Z,12.41
2023-05-02T07:46:05.006Z,12.47
2023-05-02T07:47:04.993Z,12.50
2023-05-02T07:48:04.952Z,12.53
2023-05-02T07:49:04.934Z,12.52
2023-05-02T07:50:04.953Z,12.54
2023-05-02T07:51:04.969Z,12.62
2023-05-02T07:52:04.912Z,12.68
2023-05-02T07:53:04.946Z,12.71
2023-05-02T07:54:04.872Z,12.71
2023-05-02T07:55:04.928Z,12.72
2023-05-02T07:56:05.000Z,12.72
2023-05-02T07:57:05.057Z,12.77
2023-05-02T07:58:04.828Z,12.82
2023-05-02T07:59:05.686Z,12.72
2023-05-02T08:00:05.112Z,12.64
2023-05-02T08:01:04.856Z,12.54
2023-05-02T08:02:05.386Z,12.41
2023-05-02T08:03:05.320Z,12.46
2023-05-02T08:04:04.898Z,12.47
2023-05-02T08:05:04.878Z,12.41
2023-05-02T08:06:04.946Z,12.50
2023-05-02T08:07:04.781Z,12.64
2023-05-02T08:08:04.745Z,12.70
2023-05-02T08:09:04.835Z,12.71
2023-05-02T08:10:04.807Z,12.75
2023-05-02T08:11:04.708Z,12.82
2023-05-02T08:12:05.083Z,12.89
2023-05-02T08:13:04.670Z,12.95
2023-05-02T08:14:04.670Z,12.97
2023-05-02T08:15:04.659Z,12.95
2023-05-02T08:16:04.700Z,12.95
2023-05-02T08:17:04.622Z,12.96
2023-05-02T08:18:04.621Z,13.03
2023-05-02T08:19:04.672Z,13.08
2023-05-02T08:20:05.364Z,13.17
2023-05-02T08:21:04.637Z,13.20
2023-05-02T08:22:04.544Z,13.30
2023-05-02T08:23:04.600Z,13.48
2023-05-02T08:24:04.635Z,13.66
2023-05-02T08:25:04.568Z,13.85
2023-05-02T08:26:04.753Z,14.04
2023-05-02T08:27:04.714Z,14.24
2023-05-02T08:28:04.486Z,14.39
2023-05-02T08:29:04.584Z,14.62
2023-05-02T08:30:04.809Z,14.72
2023-05-02T08:31:04.502Z,14.77
2023-05-02T08:32:04.656Z,14.78
2023-05-02T08:33:04.480Z,14.83
2023-05-02T08:34:04.437Z,14.86
2023-05-02T08:35:04.456Z,14.77
2023-05-02T08:36:04.429Z,14.65
2023-05-02T08:37:04.393Z,14.65
2023-05-02T08:38:04.358Z,14.57
2023-05-02T08:39:04.405Z,14.50
2023-05-02T08:40:04.682Z,14.45
2023-05-02T08:41:04.539Z,14.40
2023-05-02T08:42:04.380Z,14.42
2023-05-02T08:43:04.356Z,14.42
2023-05-02T08:44:04.362Z,14.29
2023-05-02T08:45:04.332Z,14.22
2023-05-02T08:46:04.394Z,14.12
2023-05-02T08:47:04.295Z,14.10
2023-05-02T08:48:04.314Z,14.04
2023-05-02T08:49:04.267Z,13.97
2023-05-02T08:50:04.225Z,13.91
2023-05-02T08:51:04.411Z,13.78
2023-05-02T08:52:04.234Z,13.69
2023-05-02T08:53:04.207Z,13.64
2023-05-02T08:54:04.191Z,13.57
2023-05-02T08:55:04.426Z,13.54
2023-05-02T08:56:04.154Z,13.48
2023-05-02T08:57:04.175Z,13.46
2023-05-02T08:58:04.114Z,13.44
2023-05-02T08:59:04.147Z,13.39
2023-05-02T09:00:04.132Z,13.33
2023-05-02T09:01:04.169Z,13.28
2023-05-02T09:02:04.113Z,13.20
2023-05-02T09:03:04.620Z,13.03
2023-05-02T09:04:04.200Z,13.00
2023-05-02T09:05:04.104Z,12.96
2023-05-02T09:06:04.064Z,13.00
2023-05-02T09:07:04.063Z,13.05
2023-05-02T09:08:04.064Z,13.15
2023-05-02T09:09:04.036Z,13.26
2023-05-02T09:10:04.081Z,13.39
2023-05-02T09:11:04.047Z,13.54
2023-05-02T09:12:03.974Z,13.69
2023-05-02T09:13:04.049Z,13.84
2023-05-02T09:14:04.092Z,13.85
2023-05-02T09:15:03.977Z,13.95
2023-05-02T09:16:03.968Z,14.06
2023-05-02T09:17:04.101Z,14.24
2023-05-02T09:18:03.941Z,14.37
2023-05-02T09:19:04.703Z,14.52
2023-05-02T09:20:03.957Z,14.55
2023-05-02T09:21:03.878Z,14.64
2023-05-02T09:22:03.952Z,14.70
2023-05-02T09:23:03.904Z,14.86
2023-05-02T09:24:03.940Z,14.99
2023-05-02T09:25:03.921Z,15.17
2023-05-02T09:26:03.897Z,15.34
2023-05-02T09:27:03.904Z,15.46
2023-05-02T09:28:03.790Z,15.53
2023-05-02T09:29:03.810Z,15.57
2023-05-02T09:30:03.788Z,15.62
2023-05-02T09:31:03.832Z,15.60
2023-05-02T09:32:03.793Z,15.29
2023-05-02T09:33:03.813Z,15.34
2023-05-02T09:34:03.708Z,15.51
2023-05-02T09:35:03.742Z,15.67
2023-05-02T09:36:03.708Z,15.83
2023-05-02T09:37:03.723Z,15.92
2023-05-02T09:38:03.672Z,15.97
2023-05-02T09:39:03.682Z,15.96
2023-05-02T09:40:03.649Z,15.78
2023-05-02T09:41:04.486Z,15.41
2023-05-02T09:42:03.655Z,15.20
2023-05-02T09:43:03.646Z,15.16
2023-05-02T09:44:03.749Z,15.11
2023-05-02T09:45:03.657Z,15.11
2023-05-02T09:46:03.647Z,15.14
2023-05-02T09:47:03.921Z,15.23
2023-05-02T09:48:04.011Z,15.23
2023-05-02T09:49:03.703Z,15.31
2023-05-02T09:50:03.596Z,15.35
2023-05-02T09:51:03.642Z,15.38
2023-05-02T09:52:03.913Z,15.38
2023-05-02T09:53:04.263Z,15.44
2023-05-02T09:54:03.561Z,15.41
2023-05-02T09:55:03.546Z,15.29
2023-05-02T09:56:03.521Z,15.25
2023-05-02T09:57:03.756Z,15.23
2023-05-02T09:58:03.843Z,15.28
2023-05-02T09:59:03.444Z,15.36
2023-05-02T10:00:03.667Z,15.35
2023-05-02T10:01:03.524Z,15.35
2023-05-02T10:02:03.520Z,15.31
2023-05-02T10:03:03.492Z,15.07
2023-05-02T10:04:03.501Z,15.01
2023-05-02T10:05:03.707Z,14.98
2023-05-02T10:06:03.686Z,14.91
2023-05-02T10:07:03.389Z,14.86
2023-05-02T10:08:03.373Z,14.78
2023-05-02T10:09:03.354Z,14.55
2023-05-02T10:10:03.329Z,14.40
2023-05-02T10:11:03.337Z,14.39
2023-05-02T10:12:03.363Z,14.35
2023-05-02T10:13:03.284Z,14.32
2023-05-02T10:14:03.625Z,14.28
2023-05-02T10:15:03.309Z,14.24
2023-05-02T10:16:03.389Z,14.18
2023-05-02T10:17:03.284Z,14.12
2023-05-02T10:18:03.313Z,14.10
2023-05-02T10:19:03.365Z,14.15
2023-05-02T10:20:03.202Z,14.21
2023-05-02T10:21:03.253Z,14.32
2023-05-02T10:22:03.204Z,14.42
2023-05-02T10:23:03.215Z,14.39
2023-05-02T10:24:03.177Z,14.50
2023-05-02T10:25:03.660Z,14.61
2023-05-02T10:26:03.643Z,14.73
2023-05-02T10:27:03.179Z,14.81
2023-05-02T10:28:03.113Z,14.77
2023-05-02T10:29:03.151Z,14.58
2023-05-02T10:30:03.103Z,14.65
2023-05-02T10:31:03.366Z,14.75
2023-05-02T10:32:03.206Z,14.84
2023-05-02T10:33:03.141Z,14.88
2023-05-02T10:34:03.038Z,14.89
2023-05-02T10:35:03.261Z,14.73
2023-05-02T10:36:03.407Z,14.77
2023-05-02T10:37:03.053Z,14.75
2023-05-02T10:38:03.012Z,14.75
2023-05-02T10:39:02.997Z,14.70
2023-05-02T10:40:03.104Z,14.58
2023-05-02T10:41:03.019Z,14.36
2023-05-02T10:42:03.114Z,14.12
2023-05-02T10:43:03.087Z,13.96
2023-05-02T10:44:02.942Z,13.81
2023-05-02T10:45:03.216Z,13.63
2023-05-02T10:46:03.076Z,13.62
2023-05-02T10:47:03.106Z,13.62
2023-05-02T10:48:03.024Z,13.67
2023-05-02T10:49:02.954Z,13.79
2023-05-02T10:50:02.951Z,13.91
2023-05-02T10:51:02.950Z,14.03
2023-05-02T10:52:02.861Z,14.15
2023-05-02T10:53:03.561Z,14.25
2023-05-02T10:54:02.837Z,14.39
2023-05-02T10:55:02.860Z,14.52
2023-05-02T10:56:02.779Z,14.64
2023-05-02T10:57:02.807Z,14.57
2023-05-02T10:58:02.784Z,14.61
2023-05-02T10:59:02.832Z,14.72
2023-05-02T11:00:02.834Z,14.84
2023-05-02T11:01:02.868Z,14.91
2023-05-02T11:02:04.544Z,14.94
2023-05-02T11:03:03.125Z,14.98
2023-05-02T11:04:02.833Z,14.96
2023-05-02T11:05:03.287Z,14.99
2023-05-02T11:06:02.865Z,14.98
2023-05-02T11:07:02.697Z,14.96
2023-05-02T11:08:02.854Z,14.95
2023-05-02T11:09:02.700Z,14.95
2023-05-02T11:10:02.683Z,14.94
2023-05-02T11:11:02.672Z,14.92
2023-05-02T11:12:02.650Z,14.92
2023-05-02T11:13:02.634Z,14.84
2023-05-02T11:14:02.622Z,14.81
2023-05-02T11:15:02.805Z,14.81
2023-05-02T11:16:02.655Z,14.81
2023-05-02T11:17:02.671Z,14.80
2023-05-02T11:18:02.702Z,14.69
2023-05-02T11:19:02.805Z,14.70
2023-05-02T11:20:02.540Z,14.62
2023-05-02T11:21:02.570Z,14.77
2023-05-02T11:22:02.524Z,14.94
2023-05-02T11:23:02.511Z,15.02
2023-05-02T11:24:02.484Z,15.13
2023-05-02T11:25:02.699Z,15.19
2023-05-02T11:26:02.539Z,15.14
2023-05-02T11:27:02.669Z,15.27
2023-05-02T11:28:02.437Z,15.47
2023-05-02T11:29:02.430Z,15.67
2023-05-02T11:30:02.551Z,15.72
2023-05-02T11:31:02.438Z,15.82
2023-05-02T11:32:02.468Z,15.89
2023-05-02T11:33:02.404Z,15.82
2023-05-02T11:34:02.463Z,15.82
2023-05-02T11:35:02.728Z,15.87
2023-05-02T11:36:02.592Z,15.94
2023-05-02T11:37:02.576Z,16.02
2023-05-02T11:38:02.807Z,16.08
2023-05-02T11:39:02.898Z,16.12
2023-05-02T11:40:02.335Z,16.14
2023-05-02T11:41:02.290Z,16.15
2023-05-02T11:42:02.417Z,16.09
2023-05-02T11:43:02.444Z,16.01
2023-05-02T11:44:02.342Z,15.93
2023-05-02T11:45:02.606Z,15.90
2023-05-02T11:46:02.738Z,15.84
2023-05-02T11:47:02.771Z,15.84
2023-05-02T11:48:02.427Z,15.82
2023-05-02T11:49:02.262Z,15.71
2023-05-02T11:50:02.216Z,15.67
2023-05-02T11:51:02.305Z,15.69
2023-05-02T11:52:02.176Z,15.67
2023-05-02T11:53:02.261Z,15.62
2023-05-02T11:54:02.225Z,15.60
2023-05-02T11:55:02.487Z,15.54
2023-05-02T11:56:02.243Z,15.29
2023-05-02T11:57:02.128Z,15.19
2023-05-02T11:58:02.128Z,15.20
2023-05-02T11:59:02.113Z,15.13
2023-05-02T12:00:02.175Z,15.14
2023-05-02T12:01:02.051Z,15.20
2023-05-02T12:02:02.071Z,15.21
2023-05-02T12:03:02.208Z,15.20
2023-05-02T12:04:02.100Z,15.19
2023-05-02T12:05:02.277Z,15.16
2023-05-02T12:06:02.297Z,14.92
2023-05-02T12:07:02.130Z,14.83
2023-05-02T12:08:03.540Z,14.65
2023-05-02T12:09:01.990Z,14.45
2023-05-02T12:10:01.984Z,14.45
2023-05-02T12:11:01.947Z,14.55
2023-05-02T12:12:02.062Z,14.69
2023-05-02T12:13:01.946Z,14.81
2023-05-02T12:14:01.929Z,14.99
2023-05-02T12:15:02.409Z,15.11
2023-05-02T12:16:01.973Z,15.25
2023-05-02T12:17:01.877Z,15.29
2023-05-02T12:18:02.087Z,15.20
2023-05-02T12:19:01.859Z,15.09
2023-05-02T12:20:01.930Z,15.20
2023-05-02T12:21:01.940Z,15.32
2023-05-02T12:22:02.332Z,15.51
2023-05-02T12:23:01.817Z,15.67
2023-05-02T12:24:01.854Z,15.86
2023-05-02T12:25:02.124Z,15.97
2023-05-02T12:26:01.859Z,16.08
2023-05-02T12:27:02.024Z,16.20
2023-05-02T12:28:01.939Z,16.27
2023-05-02T12:29:01.759Z,16.34
2023-05-02T12:30:02.025Z,16.35
2023-05-02T12:31:01.753Z,16.42
2023-05-02T12:32:01.782Z,16.43
2023-05-02T12:33:01.783Z,16.49
2023-05-02T12:34:01.869Z,16.53
2023-05-02T12:35:01.670Z,16.63
2023-05-02T12:36:01.847Z,16.61
2023-05-02T12:37:01.688Z,16.60
2023-05-02T12:38:01.799Z,16.53
2023-05-02T12:39:01.658Z,16.57
2023-05-02T12:40:01.966Z,16.66
2023-05-02T12:41:01.741Z,16.70
2023-05-02T12:42:01.778Z,16.85
2023-05-02T12:43:01.571Z,16.91
2023-05-02T12:44:01.786Z,17.03
2023-05-02T12:45:01.568Z,17.08
2023-05-02T12:46:01.576Z,17.06
2023-05-02T12:47:01.609Z,17.03
2023-05-02T12:48:01.629Z,17.07
2023-05-02T12:49:01.670Z,17.06
2023-05-02T12:50:01.754Z,17.00
2023-05-02T12:51:01.562Z,16.96
2023-05-02T12:52:01.771Z,16.88
2023-05-02T12:53:01.912Z,16.85
2023-05-02T12:54:01.733Z,16.89
2023-05-02T12:55:01.596Z,17.11
2023-05-02T12:56:01.453Z,17.26
2023-05-02T12:57:01.917Z,17.38
2023-05-02T12:58:01.854Z,17.31
2023-05-02T12:59:01.719Z,17.22
2023-05-02T13:00:01.918Z,16.97
2023-05-02T13:01:01.494Z,16.88
2023-05-02T13:02:01.414Z,16.83
2023-05-02T13:03:01.555Z,16.79